Time;durP1;ratioP1;P1;durP2;ratioP2;P2;SDS_P1;SDS_P2;PMS_P1;PMS_P2;Temp;Humidity;BMP_temperature;BMP_pressure;BME280_temperature;BME280_humidity;BME280_pressure;Samples;Min_cycle;Max_cycle;Signal;HPM_P1;HPM_P2
2023/10/13 00:02:11;;;;;;;0.30;0.30;;;;;;;13.58;87.19;98546.91;5021754;28;20045;-77
2023/10/13 00:04:37;;;;;;;0.20;0.20;;;;;;;13.58;87.21;98549.56;5027982;28;20502;-77
2023/10/13 00:07:04;;;;;;;0.20;0.20;;;;;;;13.57;87.16;98553.16;5029034;28;20037;-77
2023/10/13 00:09:33;;;;;;;0.30;0.30;;;;;;;13.54;86.93;98548.63;5025236;28;20049;-76
2023/10/13 00:11:59;;;;;;;0.20;0.20;;;;;;;13.52;87.41;98547.72;5028168;28;20059;-77
2023/10/13 00:14:34;;;;;;;0.20;0.20;;;;;;;13.35;87.65;98550.13;5024050;28;20025;-77
2023/10/13 00:17:05;;;;;;;0.30;0.30;;;;;;;13.38;87.35;98551.97;5025018;28;20045;-76
2023/10/13 00:19:37;;;;;;;0.20;0.20;;;;;;;13.21;87.59;98551.66;5024555;28;20072;-78
2023/10/13 00:22:09;;;;;;;0.20;0.20;;;;;;;13.06;88.68;98543.38;5019428;28;20042;-76
2023/10/13 00:24:42;;;;;;;0.30;0.30;;;;;;;12.91;88.46;98541.34;5023766;28;20041;-76
2023/10/13 00:27:30;;;;;;;0.20;0.20;;;;;;;12.80;88.74;98546.53;5025621;28;20041;-76
2023/10/13 00:32:46;;;;;;;0.30;0.30;;;;;;;12.69;89.14;98545.44;5024242;28;20037;-78
2023/10/13 00:35:14;;;;;;;0.20;0.20;;;;;;;12.58;89.15;98547.91;5023628;28;20491;-77
2023/10/13 00:37:44;;;;;;;0.20;0.20;;;;;;;12.60;89.34;98545.28;5024947;28;20037;-77
2023/10/13 00:40:24;;;;;;;0.30;0.30;;;;;;;12.49;89.64;98541.50;5022342;28;20037;-76
2023/10/13 00:42:52;;;;;;;0.30;0.30;;;;;;;12.54;89.61;98543.38;5021264;28;20599;-77
2023/10/13 00:45:17;;;;;;;0.30;0.30;;;;;;;12.37;89.77;98536.84;5011063;28;20053;-78
2023/10/13 00:47:56;;;;;;;0.30;0.30;;;;;;;12.27;89.94;98537.53;5022007;28;20487;-78
2023/10/13 00:50:23;;;;;;;0.30;0.30;;;;;;;12.25;90.01;98547.28;5021845;28;20649;-78
2023/10/13 00:52:52;;;;;;;0.30;0.30;;;;;;;12.14;89.90;98543.50;5027176;28;20051;-78
2023/10/13 00:55:22;;;;;;;0.30;0.30;;;;;;;12.00;90.40;98540.56;5022986;28;20589;-77
2023/10/13 00:58:02;;;;;;;0.30;0.30;;;;;;;11.88;91.25;98538.53;5039973;28;20509;-77
2023/10/13 01:00:28;;;;;;;0.30;0.30;;;;;;;11.79;90.85;98538.31;5023559;28;20045;-77
2023/10/13 01:03:05;;;;;;;0.30;0.30;;;;;;;11.78;91.05;98541.84;5026416;28;20179;-77
2023/10/13 01:05:31;;;;;;;0.30;0.30;;;;;;;11.62;90.98;98535.25;5022311;28;20049;-77
2023/10/13 01:08:01;;;;;;;0.30;0.30;;;;;;;11.54;91.24;98535.09;5025348;28;20116;-77
2023/10/13 01:10:27;;;;;;;0.30;0.30;;;;;;;11.50;91.23;98546.59;5024228;28;20048;-76
2023/10/13 01:12:56;;;;;;;0.30;0.30;;;;;;;11.59;91.23;98535.19;5021047;28;20597;-76
2023/10/13 01:15:22;;;;;;;0.30;0.30;;;;;;;11.53;91.12;98538.63;5011516;28;20072;-77
2023/10/13 01:17:48;;;;;;;0.30;0.30;;;;;;;11.60;91.65;98528.09;5024104;28;20033;-77
2023/10/13 01:20:21;;;;;;;0.30;0.30;;;;;;;11.52;91.30;98525.25;5021887;28;20137;-77
2023/10/13 01:22:55;;;;;;;0.30;0.30;;;;;;;11.48;91.33;98531.38;5025989;28;20060;-77
2023/10/13 01:25:26;;;;;;;0.30;0.30;;;;;;;11.60;91.22;98534.34;5020472;28;20160;-76
2023/10/13 01:27:52;;;;;;;0.32;0.32;;;;;;;11.49;91.23;98527.84;5037130;28;20067;-77
2023/10/13 01:30:26;;;;;;;0.40;0.40;;;;;;;11.45;91.09;98521.56;5025975;28;20725;-77
2023/10/13 01:32:53;;;;;;;0.30;0.30;;;;;;;11.36;90.85;98518.66;5020850;28;20130;-77
2023/10/13 01:35:24;;;;;;;0.32;0.32;;;;;;;11.28;91.25;98515.81;5026269;28;20033;-77
2023/10/13 01:37:51;;;;;;;0.30;0.30;;;;;;;11.21;91.18;98519.22;5024456;28;20037;-77
2023/10/13 01:40:19;;;;;;;0.30;0.30;;;;;;;11.02;91.28;98519.66;5018717;28;20087;-76
2023/10/13 01:42:55;;;;;;;0.30;0.30;;;;;;;10.99;91.51;98522.25;5025152;28;20041;-78
2023/10/13 01:45:21;;;;;;;0.40;0.40;;;;;;;10.92;91.45;98523.88;5019419;28;20052;-78
2023/10/13 01:47:50;;;;;;;0.40;0.40;;;;;;;10.75;91.44;98517.22;5007682;28;20537;-78
2023/10/13 01:50:20;;;;;;;0.40;0.40;;;;;;;10.71;91.61;98531.34;5024607;28;20479;-77
2023/10/13 01:52:47;;;;;;;0.40;0.40;;;;;;;10.75;91.64;98523.44;5027342;28;20182;-77
2023/10/13 01:55:14;;;;;;;0.40;0.40;;;;;;;10.70;91.92;98521.53;5026519;28;20115;-78
2023/10/13 01:57:42;;;;;;;0.40;0.40;;;;;;;10.73;91.89;98518.91;5040637;28;20434;-76
2023/10/13 02:00:18;;;;;;;0.30;0.30;;;;;;;10.70;91.66;98517.09;5035978;28;20041;-78
2023/10/13 02:02:45;;;;;;;0.40;0.40;;;;;;;10.70;91.77;98511.75;5026284;28;20174;-77
2023/10/13 02:05:16;;;;;;;0.40;0.40;;;;;;;10.65;91.73;98512.50;5041703;28;20045;-78
2023/10/13 02:07:45;;;;;;;0.40;0.40;;;;;;;10.68;91.60;98504.56;5027770;28;20036;-76
2023/10/13 02:10:12;;;;;;;0.40;0.40;;;;;;;10.58;91.77;98499.88;5028563;28;20060;-76
2023/10/13 02:12:44;;;;;;;0.40;0.40;;;;;;;10.34;91.46;98509.03;5024331;28;20029;-76
2023/10/13 02:15:22;;;;;;;0.40;0.40;;;;;;;10.49;91.94;98504.13;5027280;28;20069;-77
2023/10/13 02:17:51;;;;;;;0.38;0.38;;;;;;;10.44;91.91;98497.78;5028115;28;20041;-76
2023/10/13 02:20:23;;;;;;;0.40;0.40;;;;;;;10.37;91.62;98500.22;5042195;28;20036;-77
2023/10/13 02:22:49;;;;;;;0.40;0.40;;;;;;;10.22;91.90;98496.25;5024226;28;20060;-76
2023/10/13 02:25:35;;;;;;;0.40;0.40;;;;;;;10.19;91.72;98493.50;5028133;28;20543;-77
2023/10/13 02:28:08;;;;;;;0.40;0.40;;;;;;;10.18;92.20;98485.47;5028050;28;20407;-77
2023/10/13 02:30:38;;;;;;;0.40;0.40;;;;;;;10.10;92.24;98479.91;5027697;28;20113;-76
2023/10/13 02:33:05;;;;;;;0.40;0.40;;;;;;;10.16;92.25;98480.09;5038855;28;20052;-79
2023/10/13 02:35:43;;;;;;;0.40;0.40;;;;;;;10.11;91.69;98478.16;5027420;28;20040;-78
2023/10/13 02:38:13;;;;;;;0.40;0.40;;;;;;;10.05;92.02;98486.91;5029624;28;20045;-76
2023/10/13 02:40:39;;;;;;;0.40;0.40;;;;;;;9.97;92.03;98476.03;5022587;28;20434;-76
2023/10/13 02:43:07;;;;;;;0.40;0.40;;;;;;;9.93;92.18;98474.16;5025014;28;20033;-78
2023/10/13 02:45:36;;;;;;;0.40;0.40;;;;;;;9.92;92.13;98476.78;5027304;28;20111;-76
2023/10/13 02:48:17;;;;;;;0.30;0.30;;;;;;;9.92;91.76;98476.78;5029642;28;20483;-76
2023/10/13 02:50:45;;;;;;;0.40;0.40;;;;;;;9.96;91.82;98462.66;5023531;28;20608;-77
2023/10/13 02:53:13;;;;;;;0.40;0.40;;;;;;;9.91;91.84;98474.94;5026045;28;20180;-77
2023/10/13 02:55:52;;;;;;;0.40;0.40;;;;;;;9.86;91.63;98463.28;5025321;28;20662;-76
2023/10/13 02:58:20;;;;;;;0.40;0.40;;;;;;;9.85;91.42;98458.81;5021982;28;20475;-77
2023/10/13 03:00:46;;;;;;;0.40;0.40;;;;;;;9.69;91.85;98461.06;5028149;28;20392;-78
2023/10/13 03:03:16;;;;;;;0.40;0.40;;;;;;;9.63;92.18;98452.91;5013691;28;20052;-77
2023/10/13 03:05:42;;;;;;;0.40;0.40;;;;;;;9.51;92.18;98460.53;5023186;28;20078;-76
2023/10/13 03:08:10;;;;;;;0.50;0.50;;;;;;;9.64;92.23;98460.03;5028172;28;20097;-76
2023/10/13 03:10:39;;;;;;;0.40;0.40;;;;;;;9.58;92.26;98459.84;5026046;28;20041;-76
2023/10/13 03:13:08;;;;;;;0.40;0.40;;;;;;;9.51;92.18;98463.19;5024291;28;20120;-76
2023/10/13 03:15:35;;;;;;;0.40;0.40;;;;;;;9.55;92.32;98458.84;5023469;28;20044;-77
2023/10/13 03:18:01;;;;;;;;;;;;;;;9.52;92.01;98452.56;5023276;28;20464;-77
2023/10/13 03:20:32;;;;;;;0.50;0.50;;;;;;;9.42;92.31;98444.28;5027675;28;19924;-76
2023/10/13 03:22:58;;;;;;;0.50;0.50;;;;;;;9.58;91.95;98450.94;5021978;28;20084;-76
2023/10/13 03:25:36;;;;;;;0.47;0.47;;;;;;;9.70;91.85;98446.88;5025876;28;20033;-77
2023/10/13 03:28:04;;;;;;;0.50;0.50;;;;;;;9.70;92.24;98448.63;5024962;28;20053;-75
2023/10/13 03:30:38;;;;;;;0.40;0.40;;;;;;;9.54;91.90;98451.72;5023842;28;20045;-77
2023/10/13 03:33:12;;;;;;;0.40;0.40;;;;;;;9.40;92.00;98449.56;5025424;28;20038;-77
2023/10/13 03:35:39;;;;;;;0.40;0.40;;;;;;;9.43;92.37;98448.75;5027113;28;20033;-77
2023/10/13 03:38:16;;;;;;;0.40;0.40;;;;;;;9.35;92.30;98458.28;5031279;28;20056;-75
2023/10/13 03:41:30;;;;;;;0.50;0.50;;;;;;;9.38;92.55;98448.59;5023555;28;20036;-77
2023/10/13 03:43:51;;;;;;;0.40;0.40;;;;;;;9.28;92.15;98443.88;5021132;28;20046;-77
2023/10/13 03:46:21;;;;;;;0.40;0.40;;;;;;;9.34;92.54;98445.81;5024397;28;20043;-77
2023/10/13 03:49:01;;;;;;;0.40;0.40;;;;;;;9.25;92.45;98449.13;5026793;28;20041;-77
2023/10/13 03:51:30;;;;;;;0.45;0.45;;;;;;;9.30;92.37;98446.59;5026890;28;20038;-77
2023/10/13 03:53:56;;;;;;;0.40;0.40;;;;;;;9.19;92.43;98444.50;5023114;28;20037;-77
2023/10/13 03:56:28;;;;;;;0.40;0.40;;;;;;;9.19;92.75;98443.59;5026786;28;20422;-74
2023/10/13 03:59:04;;;;;;;0.40;0.40;;;;;;;9.12;92.35;98452.28;5022027;28;20044;-77
2023/10/13 04:01:58;;;;;;;0.40;0.40;;;;;;;9.14;92.42;98448.78;5025560;28;20082;-75
2023/10/13 04:07:13;;;;;;;0.43;0.43;;;;;;;9.24;92.02;98441.97;5023383;28;20037;-77
2023/10/13 04:17:29;;;;;;;0.40;0.40;;;;;;;9.03;91.98;98447.56;5028984;28;20095;-78
2023/10/13 04:41:24;;;;;;;0.50;0.50;;;;;;;8.94;91.78;98439.28;5024089;28;20392;-76
2023/10/13 04:43:56;;;;;;;0.40;0.40;;;;;;;8.86;92.11;98436.41;5025978;28;20039;-77
2023/10/13 04:46:39;;;;;;;0.40;0.40;;;;;;;8.96;92.01;98437.59;5030160;28;20553;-77
2023/10/13 04:49:10;;;;;;;0.40;0.40;;;;;;;8.87;91.90;98426.69;5026280;28;20071;-77
2023/10/13 04:51:59;;;;;;;0.47;0.47;;;;;;;8.91;92.10;98433.88;5021853;28;20234;-77
2023/10/13 04:54:26;;;;;;;0.40;0.40;;;;;;;8.82;91.89;98418.56;5023997;28;20057;-77
2023/10/13 04:59:37;;;;;;;0.50;0.50;;;;;;;8.67;91.82;98412.72;5026116;28;20041;-77
2023/10/13 05:05:21;;;;;;;0.40;0.40;;;;;;;8.42;91.95;98419.03;5022439;28;20049;-78
2023/10/13 05:51:43;;;;;;;0.40;0.40;;;;;;;8.53;91.90;98406.06;5035277;28;20034;-79
2023/10/13 06:29:56;;;;;;;0.40;0.40;;;;;;;10.42;87.28;98407.91;5025472;28;20037;-79
2023/10/13 06:32:26;;;;;;;0.40;0.40;;;;;;;10.48;87.71;98411.59;5029319;28;20088;-80
2023/10/13 06:34:58;;;;;;;0.40;0.40;;;;;;;10.66;88.26;98415.59;5028925;28;20419;-78
2023/10/13 06:37:32;;;;;;;0.40;0.40;;;;;;;10.94;88.22;98404.69;5028694;28;20045;-79
2023/10/13 06:40:22;;;;;;;0.40;0.40;;;;;;;11.15;86.30;98406.91;5025626;28;20508;-79
2023/10/13 06:42:48;;;;;;;0.45;0.45;;;;;;;11.62;86.81;98404.34;5025445;28;20730;-80
2023/10/13 06:45:16;;;;;;;0.40;0.40;;;;;;;11.96;85.97;98415.69;5027051;28;20076;-80
2023/10/13 06:47:43;;;;;;;0.35;0.35;;;;;;;12.29;84.51;98405.59;5023323;28;20033;-79
2023/10/13 06:50:16;;;;;;;0.40;0.40;;;;;;;12.60;84.77;98406.13;5023490;28;20134;-80
2023/10/13 06:52:48;;;;;;;0.30;0.30;;;;;;;13.08;83.08;98405.94;5021878;28;20033;-79
2023/10/13 06:55:34;;;;;;;0.30;0.30;;;;;;;13.45;82.40;98402.88;5027591;28;20037;-80
2023/10/13 06:58:00;;;;;;;0.40;0.40;;;;;;;13.67;81.19;98391.53;5026526;28;20048;-80
2023/10/13 07:00:33;;;;;;;0.30;0.30;;;;;;;14.23;79.72;98393.91;5027791;28;20395;-80
2023/10/13 07:03:06;;;;;;;0.20;0.20;;;;;;;14.61;78.17;98394.25;5025161;28;20056;-80
2023/10/13 07:05:39;;;;;;;0.20;0.20;;;;;;;14.90;77.47;98396.25;5026463;28;20898;-80
2023/10/13 07:08:06;;;;;;;0.20;0.20;;;;;;;15.28;75.92;98395.56;5025763;28;20052;-80
2023/10/13 07:10:35;;;;;;;;;;;;;;;15.25;74.42;98398.25;5042205;28;20041;-79
2023/10/13 07:13:04;;;;;;;0.20;0.20;;;;;;;15.31;75.87;98396.47;5025605;28;19929;-80
2023/10/13 07:15:30;;;;;;;0.20;0.20;;;;;;;15.74;73.91;98398.47;5025746;28;20034;-79
2023/10/13 07:17:59;;;;;;;0.20;0.20;;;;;;;16.12;72.50;98388.72;5025845;28;20048;-80
2023/10/13 07:23:06;;;;;;;0.10;0.10;;;;;;;16.52;71.99;98393.22;5024806;28;20578;-78
2023/10/13 07:25:37;;;;;;;0.10;0.10;;;;;;;16.81;70.74;98398.63;5025243;28;20049;-78
2023/10/13 07:28:08;;;;;;;0.10;0.10;;;;;;;17.28;68.60;98394.94;5024456;28;20057;-79
2023/10/13 07:33:22;;;;;;;0.10;0.10;;;;;;;17.77;65.66;98384.88;5013879;28;20106;-78
2023/10/13 07:36:17;;;;;;;0.10;0.10;;;;;;;18.27;63.44;98388.19;5016746;28;20042;-78
2023/10/13 07:38:48;;;;;;;0.10;0.10;;;;;;;18.71;62.22;98377.06;5013777;28;20044;-79
2023/10/13 07:41:15;;;;;;;0.10;0.10;;;;;;;19.25;60.38;98376.50;5024464;28;20045;-79
2023/10/13 07:43:42;;;;;;;0.10;0.10;;;;;;;19.29;60.20;98379.16;5025700;28;20048;-78
2023/10/13 07:46:12;;;;;;;0.10;0.10;;;;;;;20.05;58.01;98369.19;5024184;28;20042;-78
2023/10/13 07:48:38;;;;;;;0.10;0.10;;;;;;;20.63;56.28;98368.31;5038677;28;20063;-80
2023/10/13 07:51:18;;;;;;;0.10;0.10;;;;;;;21.07;55.42;98374.75;5023951;28;20329;-79
2023/10/13 07:53:48;;;;;;;0.10;0.10;;;;;;;20.70;55.95;98364.59;5024245;28;20048;-79
2023/10/13 07:56:19;;;;;;;0.10;0.10;;;;;;;21.63;54.00;98367.34;5025576;28;20048;-80
2023/10/13 07:59:00;;;;;;;0.10;0.10;;;;;;;22.22;52.32;98372.41;5025348;28;20079;-80
2023/10/13 08:01:26;;;;;;;0.00;0.00;;;;;;;22.58;52.26;98364.31;5023637;28;20041;-80
2023/10/13 08:06:36;;;;;;;0.10;0.10;;;;;;;23.45;49.80;98362.91;5024517;28;20037;-81
2023/10/13 08:09:29;;;;;;;0.10;0.10;;;;;;;23.89;49.16;98360.72;5025491;28;20620;-81
2023/10/13 08:11:55;;;;;;;0.00;0.00;;;;;;;24.23;47.80;98349.66;5023880;28;20041;-81
2023/10/13 08:14:28;;;;;;;0.00;0.00;;;;;;;24.52;48.18;98350.59;5025207;28;20045;-81
2023/10/13 08:17:00;;;;;;;0.00;0.00;;;;;;;24.94;47.06;98352.81;5039110;28;20176;-82
2023/10/13 08:19:39;;;;;;;0.00;0.00;;;;;;;25.41;45.29;98345.69;5023734;28;20045;-81
2023/10/13 08:32:36;;;;;;;0.00;0.00;;;;;;;24.70;39.79;98332.72;5022550;28;20040;-80
2023/10/13 08:38:14;;;;;;;0.00;0.00;;;;;;;25.41;39.23;98328.41;5023439;28;20486;-81
2023/10/13 08:41:25;;;;;;;0.00;0.00;;;;;;;24.96;35.94;98326.34;5010588;28;20063;-79
2023/10/13 08:43:12;;;;;;;0.00;0.00;;;;;;;25.47;36.08;98323.59;5012548;28;20100;-82
2023/10/13 08:48:14;;;;;;;0.00;0.00;;;;;;;26.00;35.85;98317.06;5022788;28;20045;-81
2023/10/13 08:50:52;;;;;;;0.00;0.00;;;;;;;26.35;36.25;98313.81;5023030;28;20033;-82
2023/10/13 08:56:14;;;;;;;0.00;0.00;;;;;;;26.29;35.37;98313.16;5036686;28;20394;-81
2023/10/13 09:06:46;;;;;;;;;;;;;;;26.60;32.49;98310.06;5022222;28;20048;-81
2023/10/13 09:09:26;;;;;;;0.00;0.00;;;;;;;27.19;31.52;98312.09;5021924;28;20306;-79
2023/10/13 09:12:35;;;;;;;0.00;0.00;;;;;;;27.29;31.39;98310.72;5023429;28;20502;-80
2023/10/13 09:14:57;;;;;;;0.00;0.00;;;;;;;26.93;32.16;98306.84;5022330;28;20102;-80
2023/10/13 09:20:11;;;;;;;0.00;0.00;;;;;;;26.77;31.63;98310.22;5022885;28;20037;-80
2023/10/13 09:22:37;;;;;;;0.00;0.00;;;;;;;28.11;29.36;98308.72;5024875;28;20021;-81
2023/10/13 09:25:04;;;;;;;0.00;0.00;;;;;;;29.20;28.31;98303.25;5025236;28;20037;-81
2023/10/13 09:27:33;;;;;;;0.00;0.00;;;;;;;27.79;28.46;98303.91;5024956;28;20045;-80
2023/10/13 09:30:18;;;;;;;0.00;0.00;;;;;;;29.47;25.80;98298.16;5021186;28;20289;-81
2023/10/13 09:32:48;;;;;;;0.00;0.00;;;;;;;29.72;25.58;98294.97;5024234;28;20076;-82
2023/10/13 09:35:23;;;;;;;0.00;0.00;;;;;;;28.73;26.18;98287.38;5023463;28;20052;-81
2023/10/13 09:37:50;;;;;;;0.00;0.00;;;;;;;28.07;27.36;98290.63;5022374;28;20458;-81
2023/10/13 09:43:04;;;;;;;0.00;0.00;;;;;;;30.65;25.21;98285.97;5024426;28;20080;-81
2023/10/13 09:45:43;;;;;;;0.00;0.00;;;;;;;31.36;23.26;98274.38;5011584;28;20128;-81
2023/10/13 09:48:21;;;;;;;0.00;0.00;;;;;;;31.32;23.36;98270.91;5024910;28;20410;-81
2023/10/13 09:50:48;;;;;;;0.00;0.00;;;;;;;30.95;23.18;98271.38;5030782;28;20065;-81
2023/10/13 09:53:18;;;;;;;0.00;0.00;;;;;;;31.17;22.99;98263.56;5024231;28;20038;-81
2023/10/13 09:55:49;;;;;;;0.00;0.00;;;;;;;31.51;23.15;98259.59;5024365;28;20041;-81
2023/10/13 09:58:17;;;;;;;0.00;0.00;;;;;;;30.85;23.16;98262.78;5024904;28;20638;-81
2023/10/13 10:00:49;;;;;;;0.00;0.00;;;;;;;29.52;24.43;98264.91;5023898;28;20483;-80
2023/10/13 10:03:15;;;;;;;0.00;0.00;;;;;;;28.53;24.68;98252.69;5023666;28;20049;-79
2023/10/13 10:06:03;;;;;;;0.00;0.00;;;;;;;29.05;23.84;98258.25;5025049;28;20037;-81
2023/10/13 10:08:33;;;;;;;0.00;0.00;;;;;;;29.44;23.44;98247.94;5024334;28;20044;-80
2023/10/13 10:11:23;;;;;;;0.00;0.00;;;;;;;29.48;22.89;98252.31;5024579;28;20046;-80
2023/10/13 10:14:01;;;;;;;0.00;0.00;;;;;;;29.04;23.56;98259.22;5027964;28;20048;-80
2023/10/13 10:16:49;;;;;;;0.00;0.00;;;;;;;29.21;23.75;98243.69;5027153;28;20037;-82
2023/10/13 10:19:14;;;;;;;0.00;0.00;;;;;;;30.17;22.92;98246.59;5036331;28;20491;-80
2023/10/13 10:21:41;;;;;;;0.00;0.00;;;;;;;29.26;24.10;98233.34;5026994;28;20050;-82
2023/10/13 10:24:29;;;;;;;;;;;;;;;31.39;22.21;98233.72;5028737;28;20041;-82
2023/10/13 10:26:55;;;;;;;0.00;0.00;;;;;;;30.99;22.68;98234.38;5028013;28;19917;-82
2023/10/13 10:29:21;;;;;;;0.00;0.00;;;;;;;30.70;22.30;98228.75;5027444;28;20045;-82
2023/10/13 10:31:47;;;;;;;0.00;0.00;;;;;;;31.66;21.30;98220.00;5028257;28;20061;-82
2023/10/13 10:34:19;;;;;;;0.00;0.00;;;;;;;31.91;20.78;98215.72;5026584;28;20038;-80
2023/10/13 10:36:58;;;;;;;0.00;0.00;;;;;;;30.45;22.64;98212.81;5027412;28;20600;-81
2023/10/13 10:39:44;;;;;;;0.00;0.00;;;;;;;30.78;21.95;98212.69;5027547;28;20034;-79
2023/10/13 10:42:17;;;;;;;0.00;0.00;;;;;;;31.28;21.76;98202.28;5026923;28;20073;-80
2023/10/13 10:44:47;;;;;;;0.00;0.00;;;;;;;30.60;21.87;98200.88;5025490;28;20073;-81
2023/10/13 10:47:31;;;;;;;0.00;0.00;;;;;;;30.09;22.77;98197.50;5027442;28;20049;-81
2023/10/13 10:50:06;;;;;;;0.00;0.00;;;;;;;29.47;23.89;98196.44;5027228;28;20033;-80
2023/10/13 10:52:37;;;;;;;0.00;0.00;;;;;;;28.78;24.66;98200.16;5025571;28;20490;-80
2023/10/13 10:55:07;;;;;;;0.00;0.00;;;;;;;28.18;25.48;98199.59;5026988;28;20033;-81
2023/10/13 10:57:37;;;;;;;0.00;0.00;;;;;;;27.08;26.33;98193.91;5026516;28;20533;-79
2023/10/13 11:00:12;;;;;;;0.00;0.00;;;;;;;26.83;27.57;98189.53;5027002;28;20043;-80
2023/10/13 11:02:38;;;;;;;0.00;0.00;;;;;;;26.64;27.80;98179.44;5027041;28;20037;-78
2023/10/13 11:05:06;;;;;;;0.00;0.00;;;;;;;26.40;28.06;98190.50;5027312;28;20030;-78
2023/10/13 11:07:34;;;;;;;0.00;0.00;;;;;;;26.19;28.90;98184.09;5027988;28;20064;-79
2023/10/13 11:10:20;;;;;;;0.00;0.00;;;;;;;26.04;29.04;98182.03;5025805;28;20483;-79
2023/10/13 11:12:55;;;;;;;0.03;0.03;;;;;;;26.24;28.85;98170.22;5024038;28;20132;-78
2023/10/13 11:15:33;;;;;;;0.10;0.10;;;;;;;28.45;26.35;98166.22;5025485;28;20041;-82
2023/10/13 11:17:59;;;;;;;0.00;0.00;;;;;;;27.79;27.00;98164.97;5026050;28;20033;-80
2023/10/13 11:20:40;;;;;;;0.00;0.00;;;;;;;27.26;27.21;98162.94;5026686;28;20057;-80
2023/10/13 11:23:13;;;;;;;0.00;0.00;;;;;;;29.11;25.58;98152.63;5024038;28;20711;-81
2023/10/13 11:25:39;;;;;;;0.00;0.00;;;;;;;28.82;26.40;98149.59;5025500;28;20052;-80
2023/10/13 11:28:17;;;;;;;0.00;0.00;;;;;;;28.29;26.61;98142.31;5026809;28;20041;-81
2023/10/13 11:30:45;;;;;;;0.00;0.00;;;;;;;28.32;27.11;98144.91;5026035;28;20158;-81
2023/10/13 11:33:11;;;;;;;0.00;0.00;;;;;;;27.48;27.93;98139.97;5026457;28;20045;-81
2023/10/13 11:38:27;;;;;;;0.00;0.00;;;;;;;29.83;23.56;98149.47;5026367;28;20037;-82
2023/10/13 11:46:15;;;;;;;0.10;0.10;;;;;;;33.61;20.96;98132.03;5026943;28;20136;-82
2023/10/13 11:48:46;;;;;;;0.00;0.00;;;;;;;34.64;19.75;98128.78;5026777;28;20045;-81
2023/10/13 11:51:24;;;;;;;0.00;0.00;;;;;;;31.80;21.72;98124.44;5027219;28;20472;-82
2023/10/13 11:53:53;;;;;;;0.00;0.00;;;;;;;32.72;19.95;98116.28;5024551;28;20037;-81
2023/10/13 11:56:23;;;;;;;0.00;0.00;;;;;;;33.47;19.32;98115.56;5025566;28;20057;-81
2023/10/13 11:58:49;;;;;;;0.00;0.00;;;;;;;32.82;20.03;98105.47;5025725;28;20488;-79
2023/10/13 12:11:45;;;;;;;0.10;0.10;;;;;;;32.93;19.60;98075.22;5024951;28;20040;-82
2023/10/13 12:14:16;;;;;;;0.00;0.00;;;;;;;34.47;18.38;98078.47;5025135;28;20467;-82
2023/10/13 12:16:48;;;;;;;0.00;0.00;;;;;;;34.24;18.68;98070.03;5041535;28;20495;-82
2023/10/13 12:19:16;;;;;;;0.00;0.00;;;;;;;33.54;18.85;98069.84;5026596;28;20570;-80
2023/10/13 12:21:43;;;;;;;0.00;0.00;;;;;;;32.76;19.39;98068.09;5026277;28;20052;-82
2023/10/13 12:24:22;;;;;;;0.00;0.00;;;;;;;33.25;18.61;98059.06;5040397;28;20073;-79
2023/10/13 12:26:48;;;;;;;0.00;0.00;;;;;;;32.97;19.05;98067.59;5017320;28;20040;-81
2023/10/13 12:29:22;;;;;;;0.00;0.00;;;;;;;32.56;19.60;98065.88;5026115;28;20753;-82
2023/10/13 12:32:05;;;;;;;0.00;0.00;;;;;;;32.75;18.76;98068.22;5025538;28;20037;-79
2023/10/13 12:51:19;;;;;;;0.10;0.10;;;;;;;35.09;17.22;98034.63;5016540;28;20125;-80
2023/10/13 12:53:45;;;;;;;0.00;0.00;;;;;;;33.43;18.26;98030.03;5040304;28;20045;-81
2023/10/13 12:56:11;;;;;;;0.00;0.00;;;;;;;34.02;18.03;98023.75;5025259;28;20056;-82
2023/10/13 12:58:36;;;;;;;0.00;0.00;;;;;;;35.71;16.32;98016.56;5025822;28;20092;-82
2023/10/13 13:01:06;;;;;;;0.00;0.00;;;;;;;36.14;16.56;98022.13;5026245;28;20477;-82
2023/10/13 13:03:32;;;;;;;0.00;0.00;;;;;;;34.33;17.82;98013.91;5025769;28;20045;-81
2023/10/13 13:05:58;;;;;;;0.00;0.00;;;;;;;34.75;17.37;98010.66;5025095;28;20510;-81
2023/10/13 13:08:24;;;;;;;0.00;0.00;;;;;;;34.62;17.45;98002.44;5025283;28;20041;-81
2023/10/13 13:10:50;;;;;;;0.00;0.00;;;;;;;35.03;17.21;98017.63;5025276;28;20048;-81
2023/10/13 13:13:17;;;;;;;;;;;;;;;35.03;17.31;98009.31;5024517;28;20033;-80
2023/10/13 13:15:43;;;;;;;0.00;0.00;;;;;;;33.79;17.83;98002.47;5023599;28;19924;-79
2023/10/13 13:18:11;;;;;;;;;;;;;;;34.50;18.09;98006.16;5023154;28;20125;-81
2023/10/13 13:20:52;;;;;;;0.03;0.03;;;;;;;34.63;17.20;98001.41;5024546;28;19917;-78
2023/10/13 13:23:18;;;;;;;0.00;0.00;;;;;;;33.36;18.46;97990.00;5021897;28;20487;-78
2023/10/13 13:25:47;;;;;;;0.00;0.00;;;;;;;31.96;20.38;97991.84;5025210;28;20048;-80
2023/10/13 13:28:15;;;;;;;0.00;0.00;;;;;;;32.90;19.45;97993.41;5023050;28;20413;-79
2023/10/13 13:30:43;;;;;;;0.00;0.00;;;;;;;32.58;20.07;97992.97;5025112;28;20037;-79
2023/10/13 13:33:12;;;;;;;0.10;0.10;;;;;;;33.11;18.91;97990.09;5021785;28;20546;-79
2023/10/13 13:35:44;;;;;;;0.10;0.10;;;;;;;34.52;18.25;97982.00;5032498;28;20207;-78
2023/10/13 13:38:09;;;;;;;0.10;0.10;;;;;;;35.28;17.20;97978.53;5024733;28;20136;-80
2023/10/13 13:40:38;;;;;;;0.00;0.00;;;;;;;36.01;16.53;97973.31;5025072;28;20132;-79
2023/10/13 13:43:04;;;;;;;0.03;0.03;;;;;;;36.70;16.12;97976.47;5023173;28;20087;-78
2023/10/13 13:45:32;;;;;;;0.00;0.00;;;;;;;34.75;17.71;97971.84;5023067;28;20048;-79
2023/10/13 13:47:58;;;;;;;0.10;0.10;;;;;;;35.21;16.93;97968.94;5027813;28;20514;-77
2023/10/13 13:50:26;;;;;;;0.00;0.00;;;;;;;36.12;16.76;97953.81;5028419;28;20053;-80
2023/10/13 13:52:59;;;;;;;0.00;0.00;;;;;;;35.14;17.14;97948.28;5028071;28;20531;-79
2023/10/13 13:55:28;;;;;;;0.00;0.00;;;;;;;35.53;16.58;97945.97;5027518;28;20688;-80
2023/10/13 13:57:57;;;;;;;0.00;0.00;;;;;;;35.57;17.50;97931.69;5035130;28;20045;-79
2023/10/13 14:00:36;;;;;;;0.00;0.00;;;;;;;34.57;18.03;97933.53;5028012;28;20044;-79
2023/10/13 14:03:26;;;;;;;0.00;0.00;;;;;;;35.75;16.99;97929.25;5028053;28;20131;-79
2023/10/13 14:05:52;;;;;;;0.00;0.00;;;;;;;35.45;17.74;97910.50;5035882;28;20047;-78
2023/10/13 14:08:17;;;;;;;0.00;0.00;;;;;;;35.59;17.08;97920.47;5028043;28;20045;-80
2023/10/13 14:13:51;;;;;;;0.00;0.00;;;;;;;35.57;16.74;97906.72;4995464;28;20459;-81
2023/10/13 14:16:17;;;;;;;0.00;0.00;;;;;;;34.76;18.95;97905.19;5028169;28;20030;-81
2023/10/13 14:18:47;;;;;;;0.00;0.00;;;;;;;36.34;16.66;97895.34;5026669;28;20470;-81
2023/10/13 14:21:24;;;;;;;0.00;0.00;;;;;;;35.99;16.35;97892.94;5025992;28;20505;-80
2023/10/13 14:23:53;;;;;;;0.00;0.00;;;;;;;34.48;18.41;97897.38;5027531;28;20545;-81
2023/10/13 14:26:25;;;;;;;0.00;0.00;;;;;;;33.81;18.81;97887.88;5027896;28;20045;-80
2023/10/13 14:29:01;;;;;;;0.00;0.00;;;;;;;35.63;18.20;97883.09;5027681;28;20140;-80
2023/10/13 14:31:31;;;;;;;0.00;0.00;;;;;;;34.50;17.85;97878.72;5027962;28;20041;-80
2023/10/13 14:33:59;;;;;;;0.00;0.00;;;;;;;34.63;18.09;97882.25;5026695;28;20088;-80
2023/10/13 14:36:28;;;;;;;0.00;0.00;;;;;;;34.92;17.61;97874.28;5026326;28;20117;-80
2023/10/13 14:38:55;;;;;;;0.00;0.00;;;;;;;35.33;17.06;97868.06;5025070;28;20142;-79
2023/10/13 14:41:21;;;;;;;0.00;0.00;;;;;;;35.52;16.42;97875.72;5027571;28;20483;-78
2023/10/13 14:43:49;;;;;;;0.00;0.00;;;;;;;35.31;17.05;97863.63;5027794;28;20116;-79
2023/10/13 14:46:25;;;;;;;0.00;0.00;;;;;;;34.09;17.44;97875.53;5027989;28;20496;-79
2023/10/13 14:48:54;;;;;;;0.00;0.00;;;;;;;33.82;17.41;97866.63;5024731;28;20033;-79
2023/10/13 14:51:20;;;;;;;0.00;0.00;;;;;;;33.38;17.42;97871.81;5027598;28;20059;-77
2023/10/13 14:53:47;;;;;;;0.00;0.00;;;;;;;33.67;17.47;97860.41;5023339;28;20038;-80
2023/10/13 14:56:16;;;;;;;0.00;0.00;;;;;;;34.32;17.17;97867.25;5025723;28;20426;-80
2023/10/13 14:58:43;;;;;;;0.00;0.00;;;;;;;34.54;16.94;97860.84;5026259;28;20033;-80
2023/10/13 15:01:16;;;;;;;0.00;0.00;;;;;;;34.45;17.09;97868.94;5027153;28;20055;-78
2023/10/13 15:03:45;;;;;;;0.00;0.00;;;;;;;32.37;18.56;97865.59;5027817;28;20064;-77
2023/10/13 15:06:30;;;;;;;0.00;0.00;;;;;;;32.22;18.74;97861.16;5025895;28;20156;-78
2023/10/13 15:08:57;;;;;;;0.00;0.00;;;;;;;32.97;18.13;97860.31;5025723;28;20069;-79
2023/10/13 15:11:26;;;;;;;0.00;0.00;;;;;;;32.84;17.92;97850.16;5026757;28;20096;-78
2023/10/13 15:13:55;;;;;;;0.00;0.00;;;;;;;32.19;18.72;97858.63;5026430;28;20622;-79
2023/10/13 15:16:23;;;;;;;0.00;0.00;;;;;;;32.34;18.50;97849.25;5026031;28;20060;-79